createdAt,value
2018-08-17T00:00:35.216Z,9.23
2018-08-17T00:03:39.555Z,9.07
2018-08-17T00:06:43.890Z,9.80
2018-08-17T00:09:48.432Z,9.23
2018-08-17T00:12:52.903Z,9.47
2018-08-17T00:15:57.338Z,9.97
2018-08-17T00:19:02.276Z,10.43
2018-08-17T00:22:06.719Z,9.90
2018-08-17T00:25:11.468Z,10.37
2018-08-17T00:28:15.922Z,10.03
2018-08-17T00:31:20.421Z,10.70
2018-08-17T00:34:25.048Z,10.90
2018-08-17T00:37:29.465Z,10.70
2018-08-17T00:40:33.859Z,10.20
2018-08-17T00:43:38.207Z,10.53
2018-08-17T00:46:42.673Z,10.83
2018-08-17T00:49:47.254Z,10.17
2018-08-17T00:52:51.643Z,11.70
2018-08-17T00:55:55.966Z,11.30
2018-08-17T00:59:00.321Z,10.90
2018-08-17T01:02:04.847Z,11.13
2018-08-17T01:05:09.389Z,10.13
2018-08-17T01:08:13.728Z,11.13
2018-08-17T01:11:18.128Z,11.37
2018-08-17T01:14:22.762Z,10.93
2018-08-17T01:17:27.220Z,10.67
2018-08-17T01:20:31.632Z,10.53
2018-08-17T01:23:36.195Z,11.10
2018-08-17T01:26:40.685Z,10.73
2018-08-17T01:29:45.007Z,10.80
2018-08-17T01:32:49.363Z,10.73
2018-08-17T01:35:53.909Z,11.40
2018-08-17T01:38:58.243Z,11.60
2018-08-17T01:42:02.556Z,12.37
2018-08-17T01:45:06.959Z,13.00
2018-08-17T01:48:11.376Z,12.20
2018-08-17T01:51:15.805Z,13.13
2018-08-17T01:54:20.267Z,12.83
2018-08-17T01:57:24.687Z,12.50
2018-08-17T02:00:29.016Z,12.73
2018-08-17T02:03:33.546Z,13.27
2018-08-17T02:06:37.992Z,12.83
2018-08-17T02:09:42.333Z,12.33
2018-08-17T02:12:46.726Z,12.77
2018-08-17T02:15:51.076Z,13.07
2018-08-17T02:18:55.484Z,12.80
2018-08-17T02:21:59.967Z,13.23
2018-08-17T02:25:04.641Z,13.03
2018-08-17T02:28:09.153Z,12.10
2018-08-17T02:31:13.503Z,13.23
2018-08-17T02:34:17.820Z,13.33
2018-08-17T02:37:22.321Z,13.60
2018-08-17T02:40:26.888Z,12.57
2018-08-17T02:43:31.334Z,12.90
2018-08-17T02:46:35.784Z,13.33
2018-08-17T02:49:40.322Z,13.97
2018-08-17T02:52:44.709Z,14.40
2018-08-17T02:55:49.160Z,15.30
2018-08-17T02:58:53.527Z,15.17
2018-08-17T03:01:57.871Z,14.13
2018-08-17T03:05:02.331Z,13.87
2018-08-17T03:08:07.157Z,14.73
2018-08-17T03:11:11.543Z,14.57
2018-08-17T03:14:15.897Z,14.83
2018-08-17T03:17:20.281Z,15.13
2018-08-17T03:20:24.690Z,14.37
2018-08-17T03:23:29.209Z,14.33
2018-08-17T03:26:33.544Z,15.00
2018-08-17T03:29:38.079Z,14.63
2018-08-17T03:32:42.474Z,14.10
2018-08-17T03:35:46.902Z,14.63
2018-08-17T03:38:51.337Z,15.00
2018-08-17T03:41:55.696Z,15.10
2018-08-17T03:45:00.207Z,14.83
2018-08-17T03:48:04.550Z,14.73
2018-08-17T03:51:08.931Z,14.87
2018-08-17T03:54:13.323Z,14.30
2018-08-17T03:57:17.853Z,14.30
2018-08-17T04:00:22.377Z,13.23
2018-08-17T04:03:26.681Z,12.83
2018-08-17T04:06:31.123Z,14.13
2018-08-17T04:09:35.533Z,13.93
2018-08-17T04:12:39.947Z,12.67
2018-08-17T04:15:44.246Z,12.40
2018-08-17T04:18:58.912Z,12.60
2018-08-17T04:22:03.659Z,12.63
2018-08-17T04:25:08.087Z,12.47
2018-08-17T04:28:12.522Z,13.17
2018-08-17T04:31:17.111Z,12.37
2018-08-17T04:34:21.460Z,12.17
2018-08-17T04:37:25.905Z,12.60
2018-08-17T04:40:30.525Z,11.17
2018-08-17T04:43:34.940Z,11.50
2018-08-17T04:46:39.372Z,10.43
2018-08-17T04:49:43.785Z,9.60
2018-08-17T04:52:48.196Z,10.03
2018-08-17T04:55:52.623Z,9.43
2018-08-17T04:58:56.939Z,9.73
2018-08-17T05:02:01.369Z,9.73
2018-08-17T05:05:06.611Z,9.27
2018-08-17T05:08:10.928Z,10.27
2018-08-17T05:11:16.253Z,10.00
2018-08-17T05:14:20.621Z,9.00
2018-08-17T05:17:24.941Z,9.27
2018-08-17T05:20:29.518Z,9.63
2018-08-17T05:23:34.291Z,9.87
2018-08-17T05:26:39.034Z,10.17
2018-08-17T05:29:43.696Z,9.67
2018-08-17T05:32:48.109Z,9.53
2018-08-17T05:35:52.735Z,9.23
2018-08-17T05:38:57.229Z,9.63
2018-08-17T05:42:01.603Z,8.13
2018-08-17T05:45:07.685Z,8.70
2018-08-17T05:48:12.517Z,10.33
2018-08-17T05:51:17.392Z,10.07
2018-08-17T05:54:22.195Z,9.17
2018-08-17T05:57:26.958Z,8.87
2018-08-17T06:00:31.586Z,8.87
2018-08-17T06:03:36.068Z,7.97
2018-08-17T06:06:40.811Z,8.23
2018-08-17T06:09:45.439Z,8.50
2018-08-17T06:12:49.981Z,8.50
2018-08-17T06:15:54.605Z,8.87
2018-08-17T06:18:59.361Z,9.00
2018-08-17T06:22:04.064Z,9.90
2018-08-17T06:25:11.915Z,10.63
2018-08-17T06:28:16.426Z,9.90
2018-08-17T06:31:21.112Z,9.90
2018-08-17T06:34:25.672Z,9.63
2018-08-17T06:37:30.250Z,8.47
2018-08-17T06:40:34.979Z,7.83
2018-08-17T06:43:39.454Z,7.60
2018-08-17T06:46:44.094Z,7.00
2018-08-17T06:49:48.410Z,7.10
2018-08-17T06:52:52.781Z,7.53
2018-08-17T06:55:57.093Z,6.47
2018-08-17T06:59:01.452Z,6.60
2018-08-17T07:02:05.896Z,6.53
2018-08-17T07:05:10.227Z,6.50
2018-08-17T07:08:14.926Z,5.17
2018-08-17T07:11:19.469Z,5.13
2018-08-17T07:14:24.094Z,5.00
2018-08-17T07:17:28.426Z,4.43
2018-08-17T07:20:32.861Z,4.47
2018-08-17T07:23:37.269Z,5.07
2018-08-17T07:26:41.560Z,5.00
2018-08-17T07:29:45.972Z,4.70
2018-08-17T07:32:50.308Z,5.57
2018-08-17T07:35:54.821Z,5.03
2018-08-17T07:38:59.214Z,4.80
2018-08-17T07:42:03.605Z,4.50
2018-08-17T07:45:08.198Z,4.53
2018-08-17T07:48:12.667Z,4.60
2018-08-17T07:51:17.027Z,4.70
2018-08-17T07:54:21.496Z,4.13
2018-08-17T07:57:25.842Z,4.40
2018-08-17T08:00:30.187Z,4.20
2018-08-17T08:03:34.564Z,4.77
2018-08-17T08:06:38.874Z,4.10
2018-08-17T08:09:43.424Z,3.93
2018-08-17T08:12:47.870Z,3.57
2018-08-17T08:15:52.318Z,3.33
2018-08-17T08:18:56.671Z,2.90
2018-08-17T08:22:01.012Z,3.13
2018-08-17T08:25:05.572Z,2.57
2018-08-17T08:28:10.113Z,3.00
2018-08-17T08:31:14.565Z,3.23
2018-08-17T08:34:18.937Z,2.83
2018-08-17T08:37:23.370Z,2.70
2018-08-17T08:40:27.910Z,3.63
2018-08-17T08:43:32.201Z,3.53
2018-08-17T08:46:37.300Z,3.70
2018-08-17T08:49:41.636Z,3.47
2018-08-17T08:52:46.106Z,3.83
2018-08-17T08:55:50.696Z,4.67
2018-08-17T08:58:55.236Z,3.83
2018-08-17T09:01:59.538Z,3.90
2018-08-17T09:05:03.986Z,4.10
2018-08-17T09:08:08.503Z,4.40
2018-08-17T09:11:12.820Z,3.70
2018-08-17T09:14:17.243Z,4.80
2018-08-17T09:17:21.633Z,3.90
2018-08-17T09:20:26.066Z,4.13
2018-08-17T09:23:30.653Z,3.77
2018-08-17T09:26:35.091Z,3.60
2018-08-17T09:29:39.511Z,3.50
2018-08-17T09:32:44.037Z,3.30
2018-08-17T09:35:48.509Z,3.20
2018-08-17T09:38:53.023Z,3.10
2018-08-17T09:41:57.583Z,2.80
2018-08-17T09:45:01.885Z,3.10
2018-08-17T09:48:06.927Z,3.20
2018-08-17T09:51:11.339Z,3.00
2018-08-17T09:54:16.107Z,2.47
2018-08-17T09:57:20.663Z,2.70
2018-08-17T10:00:30.361Z,2.73
2018-08-17T10:03:40.008Z,2.63
2018-08-17T10:06:50.216Z,2.50
2018-08-17T10:09:55.607Z,2.47
2018-08-17T10:13:00.136Z,1.80
2018-08-17T10:16:04.569Z,2.23
2018-08-17T10:19:09.261Z,2.37
2018-08-17T10:22:13.695Z,1.90
2018-08-17T10:25:22.529Z,2.00
2018-08-17T10:28:27.246Z,1.87
2018-08-17T10:31:31.726Z,1.70
2018-08-17T10:34:36.121Z,2.30
2018-08-17T10:37:40.616Z,2.27
2018-08-17T10:40:45.142Z,2.10
2018-08-17T10:43:49.491Z,1.80
2018-08-17T10:46:53.967Z,2.30
2018-08-17T10:50:01.311Z,2.40
2018-08-17T10:53:06.012Z,1.77
2018-08-17T10:56:10.276Z,1.90
2018-08-17T10:59:14.579Z,1.87
2018-08-17T11:02:18.900Z,2.20
2018-08-17T11:05:23.313Z,1.80
2018-08-17T11:08:27.778Z,1.93
2018-08-17T11:11:32.169Z,2.03
2018-08-17T11:14:36.578Z,2.00
2018-08-17T11:17:41.984Z,2.20
2018-08-17T11:20:46.349Z,1.60
2018-08-17T11:23:50.681Z,1.80
2018-08-17T11:26:55.056Z,1.70
2018-08-17T11:29:59.375Z,1.67
2018-08-17T11:33:03.774Z,1.77
2018-08-17T11:36:08.144Z,1.70
2018-08-17T11:39:12.484Z,1.20
2018-08-17T11:42:16.818Z,1.37
2018-08-17T11:45:23.306Z,1.43
2018-08-17T11:48:32.830Z,1.90
2018-08-17T11:51:40.969Z,1.17
2018-08-17T11:54:45.637Z,1.47
2018-08-17T11:57:50.018Z,1.67
2018-08-17T12:00:54.291Z,1.40
2018-08-17T12:03:58.600Z,1.50
2018-08-17T12:07:02.930Z,1.57
2018-08-17T12:10:07.672Z,1.30
2018-08-17T12:13:18.065Z,1.50
2018-08-17T12:16:22.554Z,1.60
2018-08-17T12:19:27.026Z,1.47
2018-08-17T12:22:31.878Z,1.60
2018-08-17T12:25:44.020Z,1.93
2018-08-17T12:28:48.412Z,1.60
2018-08-17T12:31:52.777Z,1.77
2018-08-17T12:34:57.200Z,2.03
2018-08-17T12:38:06.755Z,1.67
2018-08-17T12:41:11.410Z,1.30
2018-08-17T12:44:18.489Z,2.10
2018-08-17T12:47:22.948Z,1.40
2018-08-17T12:50:27.370Z,1.83
2018-08-17T12:53:31.759Z,1.87
2018-08-17T12:56:36.207Z,1.63
2018-08-17T12:59:40.591Z,2.10
2018-08-17T13:02:45.031Z,1.77
2018-08-17T13:05:49.362Z,1.70
2018-08-17T13:08:53.808Z,1.83
2018-08-17T13:12:00.467Z,1.53
2018-08-17T13:15:04.749Z,1.70
2018-08-17T13:18:16.296Z,1.80
2018-08-17T13:21:20.577Z,2.13
2018-08-17T13:24:24.859Z,1.90
2018-08-17T13:27:29.210Z,1.70
2018-08-17T13:30:33.505Z,1.50
2018-08-17T13:33:37.841Z,1.80
2018-08-17T13:36:42.170Z,1.63
2018-08-17T13:39:46.537Z,1.80
2018-08-17T13:42:50.816Z,1.80
2018-08-17T13:45:55.121Z,1.70
2018-08-17T13:48:59.458Z,1.37
2018-08-17T13:52:03.741Z,1.57
2018-08-17T13:55:08.332Z,1.50
2018-08-17T13:58:12.713Z,1.20
2018-08-17T14:01:17.056Z,1.50
2018-08-17T14:04:21.359Z,1.87
2018-08-17T14:07:25.674Z,1.70
2018-08-17T14:10:30.013Z,1.70
2018-08-17T14:13:34.308Z,1.40
2018-08-17T14:16:38.618Z,1.73
2018-08-17T14:19:42.878Z,1.80
2018-08-17T14:22:47.186Z,1.60
2018-08-17T14:25:51.493Z,1.73
2018-08-17T14:28:55.858Z,1.60
2018-08-17T14:32:00.114Z,1.30
2018-08-17T14:35:04.419Z,1.73
2018-08-17T14:38:08.920Z,1.27
2018-08-17T14:41:13.327Z,1.67
2018-08-17T14:44:17.713Z,1.33
2018-08-17T14:47:22.070Z,1.30
2018-08-17T14:50:26.357Z,1.60
2018-08-17T14:53:30.782Z,1.50
2018-08-17T14:56:35.208Z,1.40
2018-08-17T14:59:39.593Z,1.33
2018-08-17T15:02:43.945Z,1.50
2018-08-17T15:05:48.593Z,1.70
2018-08-17T15:08:53.357Z,1.40
2018-08-17T15:11:57.655Z,1.70
2018-08-17T15:15:02.521Z,1.30
2018-08-17T15:18:07.071Z,1.90
2018-08-17T15:21:11.476Z,1.50
2018-08-17T15:24:15.803Z,1.60
2018-08-17T15:27:20.150Z,1.30
2018-08-17T15:30:25.302Z,1.50
2018-08-17T15:33:30.628Z,1.10
2018-08-17T15:36:35.709Z,1.40
2018-08-17T15:39:41.058Z,1.27
2018-08-17T15:42:46.350Z,1.30
2018-08-17T15:45:52.265Z,1.33
2018-08-17T15:48:57.289Z,1.40
2018-08-17T15:52:02.560Z,1.40
2018-08-17T15:55:06.918Z,1.50
2018-08-17T15:58:11.280Z,0.97
2018-08-17T16:01:15.676Z,1.27
2018-08-17T16:04:20.040Z,1.70
2018-08-17T16:07:24.371Z,1.20
2018-08-17T16:10:28.840Z,1.40
2018-08-17T16:13:33.007Z,0.87
2018-08-17T16:16:37.698Z,1.20
2018-08-17T16:19:42.083Z,1.03
2018-08-17T16:22:46.549Z,1.00
2018-08-17T16:25:50.914Z,0.90
2018-08-17T16:28:55.187Z,0.80
2018-08-17T16:31:59.626Z,0.90
2018-08-17T16:35:05.253Z,0.90
2018-08-17T16:38:09.742Z,0.80
2018-08-17T16:41:14.043Z,0.90
2018-08-17T16:44:18.453Z,0.90
2018-08-17T16:47:22.778Z,0.80
2018-08-17T16:50:27.070Z,0.90
2018-08-17T16:53:31.661Z,0.80
2018-08-17T16:56:36.285Z,0.80
2018-08-17T16:59:40.640Z,0.87
2018-08-17T17:02:44.980Z,0.80
2018-08-17T17:05:54.857Z,0.80
2018-08-17T17:09:02.406Z,0.80
2018-08-17T17:12:12.494Z,0.70
2018-08-17T17:15:21.072Z,0.90
2018-08-17T17:18:25.551Z,0.93
2018-08-17T17:21:29.928Z,0.87
2018-08-17T17:24:34.450Z,1.00
2018-08-17T17:27:39.063Z,0.70
2018-08-17T17:30:49.473Z,0.73
2018-08-17T17:33:54.604Z,0.90
2018-08-17T17:36:59.720Z,0.80
2018-08-17T17:40:04.528Z,0.90
2018-08-17T17:43:09.005Z,0.80
2018-08-17T17:46:13.395Z,0.90
2018-08-17T17:49:17.765Z,0.80
2018-08-17T17:52:22.435Z,0.90
2018-08-17T17:55:35.927Z,1.00
2018-08-17T17:58:40.332Z,0.90
2018-08-17T18:01:44.772Z,0.90
2018-08-17T18:04:49.171Z,1.30
2018-08-17T18:07:53.493Z,1.20
2018-08-17T18:10:57.842Z,1.10
2018-08-17T18:14:02.127Z,1.17
2018-08-17T18:17:06.545Z,1.07
2018-08-17T18:20:12.278Z,1.10
2018-08-17T18:23:16.640Z,1.20
2018-08-17T18:26:24.050Z,1.20
2018-08-17T18:29:28.333Z,1.43
2018-08-17T18:32:33.004Z,1.10
2018-08-17T18:35:37.399Z,1.10
2018-08-17T18:38:41.839Z,1.40
2018-08-17T18:41:46.222Z,1.50
2018-08-17T18:44:50.625Z,1.30
2018-08-17T18:47:55.085Z,2.07
2018-08-17T18:50:59.527Z,1.37
2018-08-17T18:54:03.927Z,1.43
2018-08-17T18:57:08.453Z,1.00
2018-08-17T19:00:14.350Z,1.40
2018-08-17T19:03:18.739Z,1.00
2018-08-17T19:06:23.147Z,1.33
2018-08-17T19:09:27.680Z,1.30
2018-08-17T19:12:32.090Z,1.13
2018-08-17T19:15:40.633Z,1.27
2018-08-17T19:18:45.768Z,1.10
2018-08-17T19:21:50.122Z,1.23
2018-08-17T19:24:54.585Z,1.03
2018-08-17T19:27:59.078Z,1.10
2018-08-17T19:31:03.557Z,1.40
2018-08-17T19:34:07.945Z,1.20
2018-08-17T19:37:12.352Z,1.23
2018-08-17T19:40:17.724Z,1.20
2018-08-17T19:43:22.115Z,1.27
2018-08-17T19:46:26.621Z,1.50
2018-08-17T19:49:31.152Z,1.53
2018-08-17T19:52:35.619Z,1.57
2018-08-17T19:55:40.084Z,1.37
2018-08-17T19:58:44.592Z,1.37
2018-08-17T20:01:48.960Z,1.63
2018-08-17T20:04:53.473Z,1.50
2018-08-17T20:07:58.021Z,1.17
2018-08-17T20:11:02.520Z,1.67
2018-08-17T20:14:06.914Z,1.43
2018-08-17T20:17:11.388Z,1.50
2018-08-17T20:20:15.809Z,1.83
2018-08-17T20:23:20.367Z,1.70
2018-08-17T20:26:25.915Z,1.37
2018-08-17T20:29:29.983Z,1.30
2018-08-17T20:32:34.398Z,2.47
2018-08-17T20:35:38.796Z,1.87
2018-08-17T20:38:43.136Z,1.53
2018-08-17T20:41:47.431Z,1.43
2018-08-17T20:44:51.790Z,1.80
2018-08-17T20:47:56.106Z,1.40
2018-08-17T20:51:05.445Z,1.67
2018-08-17T20:54:09.870Z,1.70
2018-08-17T20:57:14.375Z,1.60
2018-08-17T21:00:19.098Z,1.57
2018-08-17T21:03:23.528Z,2.20
2018-08-17T21:06:28.100Z,2.00
2018-08-17T21:09:32.565Z,2.03
2018-08-17T21:12:37.068Z,2.00
2018-08-17T21:15:41.704Z,1.63
2018-08-17T21:18:46.210Z,1.87
2018-08-17T21:21:50.510Z,1.83
2018-08-17T21:24:54.870Z,2.03
2018-08-17T21:27:59.193Z,1.90
2018-08-17T21:31:03.653Z,1.73
2018-08-17T21:34:07.958Z,2.17
2018-08-17T21:37:12.350Z,2.03
2018-08-17T21:40:21.149Z,2.33
2018-08-17T21:43:25.508Z,2.20
2018-08-17T21:46:29.829Z,2.20
2018-08-17T21:49:35.327Z,2.20
2018-08-17T21:52:39.701Z,2.40
2018-08-17T21:55:44.030Z,2.20
2018-08-17T21:58:48.361Z,2.90
2018-08-17T22:01:52.686Z,2.50
2018-08-17T22:04:57.107Z,2.60
2018-08-17T22:08:01.722Z,2.83
2018-08-17T22:11:06.190Z,2.87
2018-08-17T22:14:10.554Z,3.00
2018-08-17T22:17:36.315Z,2.67
2018-08-17T22:20:40.610Z,2.23
2018-08-17T22:23:44.932Z,2.50
2018-08-17T22:26:49.262Z,2.77
2018-08-17T22:29:54.865Z,2.50
2018-08-17T22:32:59.105Z,3.00
2018-08-17T22:36:03.914Z,3.47
2018-08-17T22:39:08.392Z,2.97
2018-08-17T22:42:13.053Z,3.10
2018-08-17T22:45:17.654Z,3.47
2018-08-17T22:48:22.282Z,3.20
2018-08-17T22:51:26.548Z,2.90
2018-08-17T22:54:30.884Z,3.50
2018-08-17T22:57:35.144Z,3.33
2018-08-17T23:00:39.536Z,3.43
2018-08-17T23:03:48.910Z,3.67
2018-08-17T23:06:53.262Z,3.37
2018-08-17T23:09:57.618Z,2.87
2018-08-17T23:13:01.937Z,3.20
2018-08-17T23:16:06.258Z,3.87
2018-08-17T23:19:10.564Z,3.97
2018-08-17T23:22:14.969Z,4.03
2018-08-17T23:25:19.364Z,3.30
2018-08-17T23:28:23.613Z,3.30
2018-08-17T23:31:28.206Z,3.70
2018-08-17T23:34:32.554Z,4.00
2018-08-17T23:37:37.031Z,4.33
2018-08-17T23:40:41.347Z,3.50
2018-08-17T23:43:45.774Z,3.20
2018-08-17T23:46:50.181Z,2.73
2018-08-17T23:49:54.481Z,3.10
2018-08-17T23:52:58.770Z,3.00
2018-08-17T23:56:03.128Z,3.37
2018-08-17T23:59:07.453Z,3.90
